sensor_id;sensor_type;location;lat;lon;timestamp;P1;durP1;ratioP1;P2;durP2;ratioP2
82230;SDS011;71832;45.138;9.816;2024-02-23T00:01:06;41.25;;;20.67;;
82230;SDS011;71832;45.138;9.816;2024-02-23T00:03:34;42.88;;;20.45;;
82230;SDS011;71832;45.138;9.816;2024-02-23T00:06:02;36.75;;;18.50;;
82230;SDS011;71832;45.138;9.816;2024-02-23T00:08:31;34.13;;;18.83;;
82230;SDS011;71832;45.138;9.816;2024-02-23T00:11:00;34.17;;;18.15;;
82230;SDS011;71832;45.138;9.816;2024-02-23T00:13:28;35.70;;;18.55;;
82230;SDS011;71832;45.138;9.816;2024-02-23T00:15:57;34.80;;;17.65;;
82230;SDS011;71832;45.138;9.816;2024-02-23T00:18:26;34.17;;;18.00;;
82230;SDS011;71832;45.138;9.816;2024-02-23T00:20:55;34.63;;;16.17;;
82230;SDS011;71832;45.138;9.816;2024-02-23T00:23:23;33.05;;;16.92;;
82230;SDS011;71832;45.138;9.816;2024-02-23T00:25:52;30.30;;;16.20;;
82230;SDS011;71832;45.138;9.816;2024-02-23T00:28:21;32.40;;;16.13;;
82230;SDS011;71832;45.138;9.816;2024-02-23T00:30:49;28.42;;;15.70;;
82230;SDS011;71832;45.138;9.816;2024-02-23T00:33:18;31.60;;;15.15;;
82230;SDS011;71832;45.138;9.816;2024-02-23T00:35:47;29.98;;;15.77;;
82230;SDS011;71832;45.138;9.816;2024-02-23T00:38:16;28.30;;;15.57;;
82230;SDS011;71832;45.138;9.816;2024-02-23T00:40:44;31.38;;;16.48;;
82230;SDS011;71832;45.138;9.816;2024-02-23T00:43:12;32.15;;;17.17;;
82230;SDS011;71832;45.138;9.816;2024-02-23T00:45:40;35.90;;;17.10;;
82230;SDS011;71832;45.138;9.816;2024-02-23T00:48:09;33.10;;;17.38;;
82230;SDS011;71832;45.138;9.816;2024-02-23T00:50:39;33.17;;;17.67;;
82230;SDS011;71832;45.138;9.816;2024-02-23T00:53:07;28.17;;;15.57;;
82230;SDS011;71832;45.138;9.816;2024-02-23T00:55:36;34.15;;;16.35;;
82230;SDS011;71832;45.138;9.816;2024-02-23T00:58:05;30.70;;;16.35;;
82230;SDS011;71832;45.138;9.816;2024-02-23T01:00:33;29.83;;;16.20;;
82230;SDS011;71832;45.138;9.816;2024-02-23T01:03:02;29.70;;;16.23;;
82230;SDS011;71832;45.138;9.816;2024-02-23T01:05:31;28.92;;;15.85;;
82230;SDS011;71832;45.138;9.816;2024-02-23T01:08:00;29.25;;;15.82;;
82230;SDS011;71832;45.138;9.816;2024-02-23T01:10:28;29.35;;;14.93;;
82230;SDS011;71832;45.138;9.816;2024-02-23T01:12:56;29.73;;;14.82;;
82230;SDS011;71832;45.138;9.816;2024-02-23T01:15:25;27.05;;;14.48;;
82230;SDS011;71832;45.138;9.816;2024-02-23T01:17:53;26.60;;;14.10;;
82230;SDS011;71832;45.138;9.816;2024-02-23T01:20:22;29.52;;;14.93;;
82230;SDS011;71832;45.138;9.816;2024-02-23T01:22:51;28.95;;;13.90;;
82230;SDS011;71832;45.138;9.816;2024-02-23T01:25:19;29.58;;;15.43;;
82230;SDS011;71832;45.138;9.816;2024-02-23T01:27:48;29.83;;;15.15;;
82230;SDS011;71832;45.138;9.816;2024-02-23T01:30:17;28.15;;;13.98;;
82230;SDS011;71832;45.138;9.816;2024-02-23T01:32:46;22.27;;;13.00;;
82230;SDS011;71832;45.138;9.816;2024-02-23T01:35:16;24.98;;;12.43;;
82230;SDS011;71832;45.138;9.816;2024-02-23T01:37:45;23.65;;;12.98;;
82230;SDS011;71832;45.138;9.816;2024-02-23T01:40:14;21.15;;;12.38;;
82230;SDS011;71832;45.138;9.816;2024-02-23T01:42:42;21.90;;;11.55;;
82230;SDS011;71832;45.138;9.816;2024-02-23T01:45:11;24.48;;;13.23;;
82230;SDS011;71832;45.138;9.816;2024-02-23T01:47:39;24.80;;;11.38;;
82230;SDS011;71832;45.138;9.816;2024-02-23T01:50:07;26.25;;;13.35;;
82230;SDS011;71832;45.138;9.816;2024-02-23T01:52:38;21.23;;;11.38;;
82230;SDS011;71832;45.138;9.816;2024-02-23T01:55:06;21.05;;;12.02;;
82230;SDS011;71832;45.138;9.816;2024-02-23T01:57:35;23.70;;;11.60;;
82230;SDS011;71832;45.138;9.816;2024-02-23T02:00:03;24.23;;;11.43;;
82230;SDS011;71832;45.138;9.816;2024-02-23T02:02:33;19.90;;;11.18;;
82230;SDS011;71832;45.138;9.816;2024-02-23T02:05:02;24.38;;;11.18;;
82230;SDS011;71832;45.138;9.816;2024-02-23T02:07:31;23.33;;;11.50;;
82230;SDS011;71832;45.138;9.816;2024-02-23T02:09:59;22.75;;;11.85;;
82230;SDS011;71832;45.138;9.816;2024-02-23T02:12:29;19.13;;;10.75;;
82230;SDS011;71832;45.138;9.816;2024-02-23T02:14:58;21.58;;;11.35;;
82230;SDS011;71832;45.138;9.816;2024-02-23T02:17:27;18.88;;;10.52;;
82230;SDS011;71832;45.138;9.816;2024-02-23T02:19:56;18.48;;;10.00;;
82230;SDS011;71832;45.138;9.816;2024-02-23T02:22:31;19.42;;;10.68;;
82230;SDS011;71832;45.138;9.816;2024-02-23T02:25:00;20.08;;;10.70;;
82230;SDS011;71832;45.138;9.816;2024-02-23T02:27:29;21.13;;;10.65;;
82230;SDS011;71832;45.138;9.816;2024-02-23T02:29:58;22.85;;;10.27;;
82230;SDS011;71832;45.138;9.816;2024-02-23T02:32:25;19.88;;;10.45;;
82230;SDS011;71832;45.138;9.816;2024-02-23T02:34:54;16.50;;;9.63;;
82230;SDS011;71832;45.138;9.816;2024-02-23T02:37:23;19.73;;;9.85;;
82230;SDS011;71832;45.138;9.816;2024-02-23T02:39:51;18.40;;;10.07;;
82230;SDS011;71832;45.138;9.816;2024-02-23T02:42:18;15.73;;;9.45;;
82230;SDS011;71832;45.138;9.816;2024-02-23T02:44:46;18.25;;;10.45;;
82230;SDS011;71832;45.138;9.816;2024-02-23T02:47:15;17.27;;;9.80;;
82230;SDS011;71832;45.138;9.816;2024-02-23T02:49:44;19.45;;;10.38;;
82230;SDS011;71832;45.138;9.816;2024-02-23T02:52:13;15.55;;;9.45;;
82230;SDS011;71832;45.138;9.816;2024-02-23T02:54:42;17.30;;;9.60;;
82230;SDS011;71832;45.138;9.816;2024-02-23T02:57:10;14.93;;;8.35;;
82230;SDS011;71832;45.138;9.816;2024-02-23T02:59:41;15.90;;;8.60;;
82230;SDS011;71832;45.138;9.816;2024-02-23T03:02:10;18.17;;;8.93;;
82230;SDS011;71832;45.138;9.816;2024-02-23T03:04:39;15.82;;;8.75;;
82230;SDS011;71832;45.138;9.816;2024-02-23T03:07:13;14.55;;;7.72;;
82230;SDS011;71832;45.138;9.816;2024-02-23T03:09:41;13.85;;;8.07;;
82230;SDS011;71832;45.138;9.816;2024-02-23T03:12:10;15.60;;;7.80;;
82230;SDS011;71832;45.138;9.816;2024-02-23T03:14:39;13.68;;;7.85;;
82230;SDS011;71832;45.138;9.816;2024-02-23T03:17:08;15.25;;;8.40;;
82230;SDS011;71832;45.138;9.816;2024-02-23T03:19:37;16.00;;;8.43;;
82230;SDS011;71832;45.138;9.816;2024-02-23T03:22:05;15.23;;;8.35;;
82230;SDS011;71832;45.138;9.816;2024-02-23T03:24:34;17.20;;;9.90;;
82230;SDS011;71832;45.138;9.816;2024-02-23T03:27:02;17.48;;;8.82;;
82230;SDS011;71832;45.138;9.816;2024-02-23T03:29:31;14.77;;;8.45;;
82230;SDS011;71832;45.138;9.816;2024-02-23T03:31:59;16.85;;;8.32;;
82230;SDS011;71832;45.138;9.816;2024-02-23T03:34:28;14.02;;;8.55;;
82230;SDS011;71832;45.138;9.816;2024-02-23T03:36:57;15.20;;;8.40;;
82230;SDS011;71832;45.138;9.816;2024-02-23T03:39:28;14.88;;;8.18;;
82230;SDS011;71832;45.138;9.816;2024-02-23T03:41:58;14.50;;;7.65;;
82230;SDS011;71832;45.138;9.816;2024-02-23T03:44:26;14.15;;;7.90;;
82230;SDS011;71832;45.138;9.816;2024-02-23T03:46:55;18.00;;;8.07;;
82230;SDS011;71832;45.138;9.816;2024-02-23T03:49:23;12.32;;;7.35;;
82230;SDS011;71832;45.138;9.816;2024-02-23T03:51:50;10.65;;;6.72;;
82230;SDS011;71832;45.138;9.816;2024-02-23T03:54:18;11.52;;;7.38;;
82230;SDS011;71832;45.138;9.816;2024-02-23T03:56:46;14.13;;;7.43;;
82230;SDS011;71832;45.138;9.816;2024-02-23T03:59:14;11.02;;;7.07;;
82230;SDS011;71832;45.138;9.816;2024-02-23T04:01:42;12.88;;;7.20;;
82230;SDS011;71832;45.138;9.816;2024-02-23T04:04:10;14.90;;;7.60;;
82230;SDS011;71832;45.138;9.816;2024-02-23T04:06:38;12.25;;;7.15;;
82230;SDS011;71832;45.138;9.816;2024-02-23T04:09:07;14.18;;;7.68;;
82230;SDS011;71832;45.138;9.816;2024-02-23T04:11:35;11.93;;;7.47;;
82230;SDS011;71832;45.138;9.816;2024-02-23T04:14:04;10.73;;;7.22;;
82230;SDS011;71832;45.138;9.816;2024-02-23T04:16:32;16.40;;;7.97;;
82230;SDS011;71832;45.138;9.816;2024-02-23T04:19:00;13.18;;;6.80;;
82230;SDS011;71832;45.138;9.816;2024-02-23T04:21:29;13.05;;;7.13;;
82230;SDS011;71832;45.138;9.816;2024-02-23T04:23:57;13.85;;;7.47;;
82230;SDS011;71832;45.138;9.816;2024-02-23T04:26:26;15.00;;;7.75;;
82230;SDS011;71832;45.138;9.816;2024-02-23T04:28:54;11.57;;;7.38;;
82230;SDS011;71832;45.138;9.816;2024-02-23T04:31:22;14.00;;;7.50;;
82230;SDS011;71832;45.138;9.816;2024-02-23T04:33:49;12.52;;;6.75;;
82230;SDS011;71832;45.138;9.816;2024-02-23T04:36:19;12.50;;;6.75;;
82230;SDS011;71832;45.138;9.816;2024-02-23T04:38:47;11.30;;;6.80;;
82230;SDS011;71832;45.138;9.816;2024-02-23T04:41:14;14.00;;;7.47;;
82230;SDS011;71832;45.138;9.816;2024-02-23T04:43:45;12.27;;;7.25;;
82230;SDS011;71832;45.138;9.816;2024-02-23T04:46:13;11.88;;;6.53;;
82230;SDS011;71832;45.138;9.816;2024-02-23T04:48:41;11.88;;;7.05;;
82230;SDS011;71832;45.138;9.816;2024-02-23T04:51:08;12.05;;;6.32;;
82230;SDS011;71832;45.138;9.816;2024-02-23T04:53:37;11.82;;;6.68;;
82230;SDS011;71832;45.138;9.816;2024-02-23T04:56:06;12.10;;;7.57;;
82230;SDS011;71832;45.138;9.816;2024-02-23T04:58:34;13.20;;;7.18;;
82230;SDS011;71832;45.138;9.816;2024-02-23T05:01:03;15.50;;;7.45;;
82230;SDS011;71832;45.138;9.816;2024-02-23T05:03:32;13.02;;;7.72;;
82230;SDS011;71832;45.138;9.816;2024-02-23T05:05:59;13.27;;;7.85;;
82230;SDS011;71832;45.138;9.816;2024-02-23T05:08:27;14.52;;;7.95;;
82230;SDS011;71832;45.138;9.816;2024-02-23T05:10:56;13.57;;;6.72;;
82230;SDS011;71832;45.138;9.816;2024-02-23T05:13:24;15.23;;;7.28;;
82230;SDS011;71832;45.138;9.816;2024-02-23T05:15:54;12.07;;;6.55;;
82230;SDS011;71832;45.138;9.816;2024-02-23T05:18:23;13.55;;;7.88;;
82230;SDS011;71832;45.138;9.816;2024-02-23T05:20:52;12.05;;;6.05;;
82230;SDS011;71832;45.138;9.816;2024-02-23T05:23:21;11.63;;;6.75;;
82230;SDS011;71832;45.138;9.816;2024-02-23T05:25:50;11.35;;;6.97;;
82230;SDS011;71832;45.138;9.816;2024-02-23T05:28:18;12.93;;;6.57;;
82230;SDS011;71832;45.138;9.816;2024-02-23T05:30:47;9.75;;;6.43;;
82230;SDS011;71832;45.138;9.816;2024-02-23T05:33:15;11.13;;;6.55;;
82230;SDS011;71832;45.138;9.816;2024-02-23T05:35:46;12.95;;;6.93;;
82230;SDS011;71832;45.138;9.816;2024-02-23T05:38:15;13.20;;;7.18;;
82230;SDS011;71832;45.138;9.816;2024-02-23T05:40:42;12.40;;;6.70;;
82230;SDS011;71832;45.138;9.816;2024-02-23T05:43:10;11.23;;;6.07;;
82230;SDS011;71832;45.138;9.816;2024-02-23T05:45:38;11.95;;;6.43;;
82230;SDS011;71832;45.138;9.816;2024-02-23T05:48:06;10.80;;;6.72;;
82230;SDS011;71832;45.138;9.816;2024-02-23T05:50:33;11.05;;;6.50;;
82230;SDS011;71832;45.138;9.816;2024-02-23T05:53:01;10.60;;;6.60;;
82230;SDS011;71832;45.138;9.816;2024-02-23T05:55:30;14.85;;;6.10;;
82230;SDS011;71832;45.138;9.816;2024-02-23T05:57:57;13.32;;;6.63;;
82230;SDS011;71832;45.138;9.816;2024-02-23T06:00:25;11.90;;;6.80;;
82230;SDS011;71832;45.138;9.816;2024-02-23T06:02:53;11.48;;;6.85;;
82230;SDS011;71832;45.138;9.816;2024-02-23T06:05:22;13.38;;;7.97;;
82230;SDS011;71832;45.138;9.816;2024-02-23T06:07:50;12.98;;;7.85;;
82230;SDS011;71832;45.138;9.816;2024-02-23T06:10:18;11.00;;;7.18;;
82230;SDS011;71832;45.138;9.816;2024-02-23T06:12:46;14.07;;;7.85;;
82230;SDS011;71832;45.138;9.816;2024-02-23T06:15:14;15.48;;;8.63;;
82230;SDS011;71832;45.138;9.816;2024-02-23T06:17:42;13.45;;;8.23;;
82230;SDS011;71832;45.138;9.816;2024-02-23T06:20:10;12.48;;;7.22;;
82230;SDS011;71832;45.138;9.816;2024-02-23T06:22:39;11.38;;;6.65;;
82230;SDS011;71832;45.138;9.816;2024-02-23T06:25:06;11.05;;;6.45;;
82230;SDS011;71832;45.138;9.816;2024-02-23T06:27:34;10.43;;;6.20;;
82230;SDS011;71832;45.138;9.816;2024-02-23T06:30:03;12.13;;;6.50;;
82230;SDS011;71832;45.138;9.816;2024-02-23T06:32:31;11.27;;;6.70;;
82230;SDS011;71832;45.138;9.816;2024-02-23T06:34:58;12.93;;;6.45;;
82230;SDS011;71832;45.138;9.816;2024-02-23T06:37:26;10.75;;;6.75;;
82230;SDS011;71832;45.138;9.816;2024-02-23T06:39:54;11.30;;;6.70;;
82230;SDS011;71832;45.138;9.816;2024-02-23T06:42:21;10.05;;;6.20;;
82230;SDS011;71832;45.138;9.816;2024-02-23T06:44:49;12.30;;;6.95;;
82230;SDS011;71832;45.138;9.816;2024-02-23T06:47:19;11.52;;;6.90;;
82230;SDS011;71832;45.138;9.816;2024-02-23T06:49:46;13.27;;;7.60;;
82230;SDS011;71832;45.138;9.816;2024-02-23T06:52:14;15.18;;;7.68;;
82230;SDS011;71832;45.138;9.816;2024-02-23T06:54:43;15.93;;;8.45;;
82230;SDS011;71832;45.138;9.816;2024-02-23T06:57:11;11.98;;;7.43;;
82230;SDS011;71832;45.138;9.816;2024-02-23T06:59:38;12.38;;;7.20;;
82230;SDS011;71832;45.138;9.816;2024-02-23T07:02:06;17.25;;;7.97;;
82230;SDS011;71832;45.138;9.816;2024-02-23T07:04:34;15.00;;;8.38;;
82230;SDS011;71832;45.138;9.816;2024-02-23T07:07:02;13.52;;;7.80;;
82230;SDS011;71832;45.138;9.816;2024-02-23T07:09:33;13.15;;;7.72;;
82230;SDS011;71832;45.138;9.816;2024-02-23T07:12:01;14.82;;;8.43;;
82230;SDS011;71832;45.138;9.816;2024-02-23T07:14:28;15.07;;;9.10;;
82230;SDS011;71832;45.138;9.816;2024-02-23T07:16:56;19.25;;;10.30;;
82230;SDS011;71832;45.138;9.816;2024-02-23T07:19:23;16.23;;;10.00;;
82230;SDS011;71832;45.138;9.816;2024-02-23T07:21:51;17.98;;;10.50;;
82230;SDS011;71832;45.138;9.816;2024-02-23T07:24:19;15.52;;;10.65;;
82230;SDS011;71832;45.138;9.816;2024-02-23T07:26:46;18.85;;;9.65;;
82230;SDS011;71832;45.138;9.816;2024-02-23T07:29:15;16.75;;;10.05;;
82230;SDS011;71832;45.138;9.816;2024-02-23T07:31:43;22.23;;;10.13;;
82230;SDS011;71832;45.138;9.816;2024-02-23T07:34:10;16.15;;;9.38;;
82230;SDS011;71832;45.138;9.816;2024-02-23T07:36:38;18.30;;;10.82;;
82230;SDS011;71832;45.138;9.816;2024-02-23T07:39:05;17.45;;;10.60;;
82230;SDS011;71832;45.138;9.816;2024-02-23T07:41:33;19.38;;;10.63;;
82230;SDS011;71832;45.138;9.816;2024-02-23T07:44:00;16.35;;;10.35;;
82230;SDS011;71832;45.138;9.816;2024-02-23T07:46:28;19.65;;;11.45;;
82230;SDS011;71832;45.138;9.816;2024-02-23T07:48:57;30.58;;;20.73;;
82230;SDS011;71832;45.138;9.816;2024-02-23T07:51:25;23.40;;;15.75;;
82230;SDS011;71832;45.138;9.816;2024-02-23T07:53:54;16.73;;;11.10;;
82230;SDS011;71832;45.138;9.816;2024-02-23T07:56:22;17.05;;;11.00;;
82230;SDS011;71832;45.138;9.816;2024-02-23T07:58:50;18.38;;;11.48;;
82230;SDS011;71832;45.138;9.816;2024-02-23T08:01:17;18.08;;;11.50;;
82230;SDS011;71832;45.138;9.816;2024-02-23T08:03:44;18.23;;;11.90;;
82230;SDS011;71832;45.138;9.816;2024-02-23T08:06:12;19.33;;;11.77;;
82230;SDS011;71832;45.138;9.816;2024-02-23T08:08:39;17.30;;;11.48;;
82230;SDS011;71832;45.138;9.816;2024-02-23T08:11:07;22.25;;;12.50;;
82230;SDS011;71832;45.138;9.816;2024-02-23T08:13:35;19.55;;;11.93;;
82230;SDS011;71832;45.138;9.816;2024-02-23T08:16:03;21.30;;;11.02;;
82230;SDS011;71832;45.138;9.816;2024-02-23T08:18:32;17.33;;;11.73;;
82230;SDS011;71832;45.138;9.816;2024-02-23T08:20:59;19.90;;;11.82;;
82230;SDS011;71832;45.138;9.816;2024-02-23T08:23:36;18.00;;;10.02;;
82230;SDS011;71832;45.138;9.816;2024-02-23T08:26:05;17.88;;;11.40;;
82230;SDS011;71832;45.138;9.816;2024-02-23T08:28:35;19.85;;;12.02;;
82230;SDS011;71832;45.138;9.816;2024-02-23T08:31:02;17.73;;;11.60;;
82230;SDS011;71832;45.138;9.816;2024-02-23T08:33:31;19.80;;;10.50;;
82230;SDS011;71832;45.138;9.816;2024-02-23T08:35:58;15.00;;;9.30;;
82230;SDS011;71832;45.138;9.816;2024-02-23T08:38:26;15.45;;;9.73;;
82230;SDS011;71832;45.138;9.816;2024-02-23T08:40:53;16.48;;;9.73;;
82230;SDS011;71832;45.138;9.816;2024-02-23T08:43:21;14.90;;;9.52;;
82230;SDS011;71832;45.138;9.816;2024-02-23T08:45:49;14.93;;;9.07;;
82230;SDS011;71832;45.138;9.816;2024-02-23T08:48:17;15.05;;;9.85;;
82230;SDS011;71832;45.138;9.816;2024-02-23T08:50:44;18.70;;;9.65;;
82230;SDS011;71832;45.138;9.816;2024-02-23T08:53:12;13.35;;;9.10;;
82230;SDS011;71832;45.138;9.816;2024-02-23T08:55:40;14.63;;;9.32;;
82230;SDS011;71832;45.138;9.816;2024-02-23T08:58:10;13.35;;;9.40;;
82230;SDS011;71832;45.138;9.816;2024-02-23T09:00:40;16.25;;;9.57;;
82230;SDS011;71832;45.138;9.816;2024-02-23T09:03:07;17.52;;;9.40;;
82230;SDS011;71832;45.138;9.816;2024-02-23T09:05:35;14.38;;;9.40;;
82230;SDS011;71832;45.138;9.816;2024-02-23T09:08:02;13.80;;;8.30;;
82230;SDS011;71832;45.138;9.816;2024-02-23T09:10:30;14.13;;;8.48;;
82230;SDS011;71832;45.138;9.816;2024-02-23T09:12:58;11.68;;;7.43;;
82230;SDS011;71832;45.138;9.816;2024-02-23T09:15:26;14.48;;;8.25;;
82230;SDS011;71832;45.138;9.816;2024-02-23T09:17:54;15.23;;;8.73;;
82230;SDS011;71832;45.138;9.816;2024-02-23T09:20:21;13.50;;;7.75;;
82230;SDS011;71832;45.138;9.816;2024-02-23T09:22:49;13.98;;;8.15;;
82230;SDS011;71832;45.138;9.816;2024-02-23T09:25:18;14.38;;;8.27;;
82230;SDS011;71832;45.138;9.816;2024-02-23T09:27:45;12.98;;;7.03;;
82230;SDS011;71832;45.138;9.816;2024-02-23T09:30:14;12.35;;;7.35;;
82230;SDS011;71832;45.138;9.816;2024-02-23T09:32:42;10.65;;;6.28;;
82230;SDS011;71832;45.138;9.816;2024-02-23T09:35:11;10.88;;;6.68;;
82230;SDS011;71832;45.138;9.816;2024-02-23T09:37:40;11.65;;;6.30;;
82230;SDS011;71832;45.138;9.816;2024-02-23T09:40:08;10.40;;;6.68;;
82230;SDS011;71832;45.138;9.816;2024-02-23T09:42:37;11.32;;;6.63;;
82230;SDS011;71832;45.138;9.816;2024-02-23T09:45:06;10.82;;;5.95;;
82230;SDS011;71832;45.138;9.816;2024-02-23T09:47:38;10.30;;;5.80;;
82230;SDS011;71832;45.138;9.816;2024-02-23T09:50:07;9.80;;;5.78;;
82230;SDS011;71832;45.138;9.816;2024-02-23T09:52:37;10.95;;;5.88;;
82230;SDS011;71832;45.138;9.816;2024-02-23T09:55:06;11.20;;;6.60;;
82230;SDS011;71832;45.138;9.816;2024-02-23T09:57:36;13.32;;;6.97;;
82230;SDS011;71832;45.138;9.816;2024-02-23T10:00:05;10.48;;;5.65;;
82230;SDS011;71832;45.138;9.816;2024-02-23T10:02:35;9.32;;;6.25;;
82230;SDS011;71832;45.138;9.816;2024-02-23T10:05:04;9.30;;;6.13;;
82230;SDS011;71832;45.138;9.816;2024-02-23T10:07:33;10.30;;;6.43;;
82230;SDS011;71832;45.138;9.816;2024-02-23T10:10:02;12.00;;;6.80;;
82230;SDS011;71832;45.138;9.816;2024-02-23T10:12:33;11.07;;;6.82;;
82230;SDS011;71832;45.138;9.816;2024-02-23T10:15:02;11.77;;;7.05;;
82230;SDS011;71832;45.138;9.816;2024-02-23T10:17:30;13.43;;;7.22;;
82230;SDS011;71832;45.138;9.816;2024-02-23T10:19:59;13.95;;;7.68;;
82230;SDS011;71832;45.138;9.816;2024-02-23T10:22:30;10.25;;;6.60;;
82230;SDS011;71832;45.138;9.816;2024-02-23T10:25:02;11.40;;;6.93;;
82230;SDS011;71832;45.138;9.816;2024-02-23T10:27:31;11.40;;;6.88;;
82230;SDS011;71832;45.138;9.816;2024-02-23T10:30:00;11.68;;;6.85;;
82230;SDS011;71832;45.138;9.816;2024-02-23T10:32:29;11.15;;;6.50;;
82230;SDS011;71832;45.138;9.816;2024-02-23T10:34:58;9.02;;;5.93;;
82230;SDS011;71832;45.138;9.816;2024-02-23T10:37:30;8.63;;;5.70;;
82230;SDS011;71832;45.138;9.816;2024-02-23T10:40:00;9.13;;;5.68;;
82230;SDS011;71832;45.138;9.816;2024-02-23T10:42:33;9.70;;;5.85;;
82230;SDS011;71832;45.138;9.816;2024-02-23T10:45:03;8.52;;;4.97;;
82230;SDS011;71832;45.138;9.816;2024-02-23T10:47:32;9.25;;;5.28;;
82230;SDS011;71832;45.138;9.816;2024-02-23T10:50:01;10.18;;;5.65;;
82230;SDS011;71832;45.138;9.816;2024-02-23T10:52:30;10.10;;;5.78;;
82230;SDS011;71832;45.138;9.816;2024-02-23T10:55:00;8.80;;;5.15;;
82230;SDS011;71832;45.138;9.816;2024-02-23T10:57:30;9.77;;;5.63;;
82230;SDS011;71832;45.138;9.816;2024-02-23T10:59:59;7.55;;;4.75;;
82230;SDS011;71832;45.138;9.816;2024-02-23T11:02:31;9.23;;;5.53;;
82230;SDS011;71832;45.138;9.816;2024-02-23T11:05:06;7.50;;;4.93;;
82230;SDS011;71832;45.138;9.816;2024-02-23T11:07:38;9.95;;;5.88;;
82230;SDS011;71832;45.138;9.816;2024-02-23T11:10:07;8.38;;;5.07;;
82230;SDS011;71832;45.138;9.816;2024-02-23T11:12:35;13.00;;;5.72;;
82230;SDS011;71832;45.138;9.816;2024-02-23T11:15:03;10.63;;;6.20;;
82230;SDS011;71832;45.138;9.816;2024-02-23T11:17:32;11.70;;;6.38;;
82230;SDS011;71832;45.138;9.816;2024-02-23T11:20:03;12.70;;;6.85;;
82230;SDS011;71832;45.138;9.816;2024-02-23T11:22:33;12.73;;;7.93;;
82230;SDS011;71832;45.138;9.816;2024-02-23T11:25:01;13.50;;;8.35;;
82230;SDS011;71832;45.138;9.816;2024-02-23T11:27:32;15.93;;;9.00;;
82230;SDS011;71832;45.138;9.816;2024-02-23T11:30:02;17.40;;;10.43;;
82230;SDS011;71832;45.138;9.816;2024-02-23T11:32:51;18.75;;;10.38;;
82230;SDS011;71832;45.138;9.816;2024-02-23T11:35:25;14.02;;;9.35;;
82230;SDS011;71832;45.138;9.816;2024-02-23T11:37:54;15.60;;;9.63;;
82230;SDS011;71832;45.138;9.816;2024-02-23T11:40:26;17.63;;;10.23;;
82230;SDS011;71832;45.138;9.816;2024-02-23T11:42:56;15.57;;;9.65;;
82230;SDS011;71832;45.138;9.816;2024-02-23T11:45:27;18.23;;;10.15;;
82230;SDS011;71832;45.138;9.816;2024-02-23T11:47:57;17.17;;;10.13;;
82230;SDS011;71832;45.138;9.816;2024-02-23T11:50:25;17.85;;;10.18;;
82230;SDS011;71832;45.138;9.816;2024-02-23T11:52:53;16.77;;;9.95;;
82230;SDS011;71832;45.138;9.816;2024-02-23T11:55:22;16.90;;;9.93;;
82230;SDS011;71832;45.138;9.816;2024-02-23T11:57:51;16.33;;;9.40;;
82230;SDS011;71832;45.138;9.816;2024-02-23T12:00:19;14.77;;;9.15;;
82230;SDS011;71832;45.138;9.816;2024-02-23T12:02:48;15.25;;;9.95;;
82230;SDS011;71832;45.138;9.816;2024-02-23T12:05:16;17.05;;;9.52;;
82230;SDS011;71832;45.138;9.816;2024-02-23T12:07:45;17.20;;;10.13;;
82230;SDS011;71832;45.138;9.816;2024-02-23T12:10:14;15.40;;;9.10;;
82230;SDS011;71832;45.138;9.816;2024-02-23T12:12:43;12.90;;;8.18;;
82230;SDS011;71832;45.138;9.816;2024-02-23T12:15:11;14.57;;;9.35;;
82230;SDS011;71832;45.138;9.816;2024-02-23T12:17:49;15.25;;;8.60;;
82230;SDS011;71832;45.138;9.816;2024-02-23T12:20:18;13.52;;;8.35;;
82230;SDS011;71832;45.138;9.816;2024-02-23T12:22:47;12.18;;;7.30;;
82230;SDS011;71832;45.138;9.816;2024-02-23T12:25:16;11.82;;;8.13;;
82230;SDS011;71832;45.138;9.816;2024-02-23T12:27:45;11.95;;;7.38;;
82230;SDS011;71832;45.138;9.816;2024-02-23T12:30:20;10.13;;;6.85;;
82230;SDS011;71832;45.138;9.816;2024-02-23T12:32:49;10.23;;;6.82;;
82230;SDS011;71832;45.138;9.816;2024-02-23T12:35:18;9.90;;;6.40;;
82230;SDS011;71832;45.138;9.816;2024-02-23T12:37:50;10.30;;;6.45;;
82230;SDS011;71832;45.138;9.816;2024-02-23T12:40:18;11.18;;;7.05;;
82230;SDS011;71832;45.138;9.816;2024-02-23T12:42:45;9.52;;;6.45;;
82230;SDS011;71832;45.138;9.816;2024-02-23T12:45:14;10.40;;;6.13;;
82230;SDS011;71832;45.138;9.816;2024-02-23T12:47:43;10.70;;;6.38;;
82230;SDS011;71832;45.138;9.816;2024-02-23T12:50:10;13.75;;;7.10;;
82230;SDS011;71832;45.138;9.816;2024-02-23T12:52:38;11.43;;;6.35;;
82230;SDS011;71832;45.138;9.816;2024-02-23T12:55:06;11.38;;;6.80;;
82230;SDS011;71832;45.138;9.816;2024-02-23T12:57:34;11.80;;;6.55;;
82230;SDS011;71832;45.138;9.816;2024-02-23T13:00:01;10.43;;;6.72;;
82230;SDS011;71832;45.138;9.816;2024-02-23T13:02:30;11.05;;;6.90;;
82230;SDS011;71832;45.138;9.816;2024-02-23T13:04:58;10.88;;;6.43;;
82230;SDS011;71832;45.138;9.816;2024-02-23T13:07:28;10.85;;;6.43;;
82230;SDS011;71832;45.138;9.816;2024-02-23T13:09:56;11.57;;;6.68;;
82230;SDS011;71832;45.138;9.816;2024-02-23T13:12:24;11.05;;;6.28;;
82230;SDS011;71832;45.138;9.816;2024-02-23T13:14:52;10.73;;;6.22;;
82230;SDS011;71832;45.138;9.816;2024-02-23T13:17:21;11.93;;;6.90;;
82230;SDS011;71832;45.138;9.816;2024-02-23T13:19:49;10.02;;;6.10;;
82230;SDS011;71832;45.138;9.816;2024-02-23T13:22:18;11.82;;;7.10;;
82230;SDS011;71832;45.138;9.816;2024-02-23T13:24:45;11.25;;;6.75;;
82230;SDS011;71832;45.138;9.816;2024-02-23T13:27:13;13.23;;;6.82;;
82230;SDS011;71832;45.138;9.816;2024-02-23T13:29:40;12.60;;;6.88;;
82230;SDS011;71832;45.138;9.816;2024-02-23T13:32:08;11.05;;;7.00;;
82230;SDS011;71832;45.138;9.816;2024-02-23T13:34:37;12.32;;;7.60;;
82230;SDS011;71832;45.138;9.816;2024-02-23T13:37:04;10.93;;;6.88;;
82230;SDS011;71832;45.138;9.816;2024-02-23T13:39:32;11.13;;;6.97;;
82230;SDS011;71832;45.138;9.816;2024-02-23T13:42:00;12.32;;;7.53;;
82230;SDS011;71832;45.138;9.816;2024-02-23T13:44:31;10.57;;;6.10;;
82230;SDS011;71832;45.138;9.816;2024-02-23T13:47:00;14.07;;;7.43;;
82230;SDS011;71832;45.138;9.816;2024-02-23T13:49:28;12.98;;;7.43;;
82230;SDS011;71832;45.138;9.816;2024-02-23T13:51:57;12.15;;;7.70;;
82230;SDS011;71832;45.138;9.816;2024-02-23T13:54:26;12.52;;;7.43;;
82230;SDS011;71832;45.138;9.816;2024-02-23T13:56:54;11.68;;;7.28;;
82230;SDS011;71832;45.138;9.816;2024-02-23T13:59:23;11.88;;;7.63;;
82230;SDS011;71832;45.138;9.816;2024-02-23T14:01:52;11.85;;;7.32;;
82230;SDS011;71832;45.138;9.816;2024-02-23T14:04:21;11.73;;;7.43;;
82230;SDS011;71832;45.138;9.816;2024-02-23T14:06:49;11.00;;;6.97;;
82230;SDS011;71832;45.138;9.816;2024-02-23T14:09:18;13.55;;;7.53;;
82230;SDS011;71832;45.138;9.816;2024-02-23T14:11:47;12.40;;;7.10;;
82230;SDS011;71832;45.138;9.816;2024-02-23T14:14:15;12.23;;;6.97;;
82230;SDS011;71832;45.138;9.816;2024-02-23T14:16:42;12.77;;;7.80;;
82230;SDS011;71832;45.138;9.816;2024-02-23T14:19:11;13.02;;;7.40;;
82230;SDS011;71832;45.138;9.816;2024-02-23T14:21:39;13.02;;;7.53;;
82230;SDS011;71832;45.138;9.816;2024-02-23T14:24:08;11.35;;;6.32;;
82230;SDS011;71832;45.138;9.816;2024-02-23T14:26:37;11.68;;;7.35;;
82230;SDS011;71832;45.138;9.816;2024-02-23T14:29:06;11.35;;;7.13;;
82230;SDS011;71832;45.138;9.816;2024-02-23T14:31:34;10.05;;;6.35;;
82230;SDS011;71832;45.138;9.816;2024-02-23T14:34:03;11.88;;;7.43;;
82230;SDS011;71832;45.138;9.816;2024-02-23T14:36:31;11.10;;;6.60;;
82230;SDS011;71832;45.138;9.816;2024-02-23T14:39:00;11.55;;;6.95;;